createdAt,value
2018-03-27T00:00:44.215Z,0.00
2018-03-27T00:01:44.208Z,0.00
2018-03-27T00:02:44.190Z,0.00
2018-03-27T00:03:44.189Z,0.00
2018-03-27T00:04:44.172Z,0.00
2018-03-27T00:05:44.167Z,0.00
2018-03-27T00:06:44.159Z,0.00
2018-03-27T00:07:44.146Z,0.00
2018-03-27T00:08:44.144Z,0.00
2018-03-27T00:09:44.126Z,0.00
2018-03-27T00:10:44.114Z,0.00
2018-03-27T00:11:44.102Z,0.00
2018-03-27T00:12:44.094Z,0.00
2018-03-27T00:13:44.090Z,0.00
2018-03-27T00:14:44.077Z,0.00
2018-03-27T00:15:44.066Z,0.00
2018-03-27T00:16:44.055Z,0.00
2018-03-27T00:17:44.042Z,0.00
2018-03-27T00:18:44.032Z,0.00
2018-03-27T00:19:44.026Z,0.00
2018-03-27T00:20:44.028Z,0.00
2018-03-27T00:21:44.008Z,0.00
2018-03-27T00:22:43.996Z,0.00
2018-03-27T00:23:43.984Z,0.00
2018-03-27T00:24:43.978Z,0.00
2018-03-27T00:25:43.972Z,0.00
2018-03-27T00:26:43.958Z,0.00
2018-03-27T00:27:43.948Z,0.00
2018-03-27T00:28:43.943Z,0.00
2018-03-27T00:29:43.927Z,0.00
2018-03-27T00:30:43.914Z,0.00
2018-03-27T00:31:43.910Z,0.00
2018-03-27T00:32:43.895Z,0.00
2018-03-27T00:33:43.886Z,0.00
2018-03-27T00:34:43.879Z,0.00
2018-03-27T00:35:43.867Z,0.00
2018-03-27T00:36:43.858Z,0.00
2018-03-27T00:37:43.848Z,0.00
2018-03-27T00:38:43.835Z,0.00
2018-03-27T00:39:43.826Z,0.00
2018-03-27T00:40:43.818Z,0.00
2018-03-27T00:41:43.811Z,0.00
2018-03-27T00:42:43.798Z,0.00
2018-03-27T00:43:43.790Z,0.00
2018-03-27T00:44:43.776Z,0.00
2018-03-27T00:45:43.772Z,0.00
2018-03-27T00:46:43.759Z,0.00
2018-03-27T00:47:43.754Z,0.00
2018-03-27T00:48:43.740Z,0.00
2018-03-27T00:49:43.730Z,0.00
2018-03-27T00:50:43.720Z,0.00
2018-03-27T00:51:43.708Z,0.00
2018-03-27T00:52:43.695Z,0.00
2018-03-27T00:53:43.687Z,0.00
2018-03-27T00:54:43.680Z,0.00
2018-03-27T00:55:43.672Z,0.00
2018-03-27T00:56:43.680Z,0.00
2018-03-27T00:57:43.648Z,0.00
2018-03-27T00:58:43.636Z,0.00
2018-03-27T00:59:43.630Z,0.00
2018-03-27T01:00:43.622Z,0.00
2018-03-27T01:01:43.611Z,0.00
2018-03-27T01:02:43.601Z,0.00
2018-03-27T01:03:43.593Z,0.00
2018-03-27T01:04:43.578Z,0.00
2018-03-27T01:05:44.290Z,0.00
2018-03-27T01:06:43.558Z,0.00
2018-03-27T01:07:43.553Z,0.00
2018-03-27T01:08:43.544Z,0.00
2018-03-27T01:09:43.536Z,0.00
2018-03-27T01:10:43.524Z,0.00
2018-03-27T01:11:43.508Z,0.00
2018-03-27T01:12:43.500Z,0.00
2018-03-27T01:13:43.496Z,0.00
2018-03-27T01:14:43.482Z,0.00
2018-03-27T01:15:43.478Z,0.00
2018-03-27T01:16:43.464Z,0.00
2018-03-27T01:17:44.293Z,0.00
2018-03-27T01:18:43.440Z,0.00
2018-03-27T01:19:43.438Z,0.00
2018-03-27T01:20:43.425Z,0.00
2018-03-27T01:21:43.419Z,0.00
2018-03-27T01:22:43.405Z,0.00
2018-03-27T01:23:43.394Z,0.00
2018-03-27T01:24:43.382Z,0.00
2018-03-27T01:25:43.377Z,0.00
2018-03-27T01:26:43.369Z,0.00
2018-03-27T01:27:43.359Z,0.00
2018-03-27T01:28:43.347Z,0.00
2018-03-27T01:29:43.340Z,0.00
2018-03-27T01:30:43.325Z,0.00
2018-03-27T01:31:43.314Z,0.00
2018-03-27T01:32:43.304Z,0.00
2018-03-27T01:33:43.299Z,0.00
2018-03-27T01:34:43.287Z,0.00
2018-03-27T01:35:43.279Z,0.00
2018-03-27T01:36:43.265Z,0.00
2018-03-27T01:37:43.260Z,0.00
2018-03-27T01:38:43.246Z,0.00
2018-03-27T01:39:43.249Z,0.00
2018-03-27T01:40:43.232Z,0.00
2018-03-27T01:41:43.224Z,0.00
2018-03-27T01:42:43.212Z,0.00
2018-03-27T01:43:43.200Z,0.00
2018-03-27T01:44:43.196Z,0.00
2018-03-27T01:45:43.181Z,0.00
2018-03-27T01:46:43.173Z,0.00
2018-03-27T01:47:43.166Z,0.00
2018-03-27T01:48:43.153Z,0.00
2018-03-27T01:49:43.145Z,0.00
2018-03-27T01:50:43.139Z,0.00
2018-03-27T01:51:43.132Z,0.00
2018-03-27T01:52:43.120Z,0.00
2018-03-27T01:53:43.117Z,0.00
2018-03-27T01:54:43.103Z,0.00
2018-03-27T01:55:43.107Z,0.00
2018-03-27T01:56:43.093Z,0.00
2018-03-27T01:57:43.074Z,0.00
2018-03-27T01:58:43.066Z,0.00
2018-03-27T01:59:43.064Z,0.00
2018-03-27T02:00:43.059Z,0.00
2018-03-27T02:01:43.038Z,0.00
2018-03-27T02:02:43.024Z,0.00
2018-03-27T02:03:43.029Z,0.00
2018-03-27T02:04:43.009Z,0.00
2018-03-27T02:05:43.004Z,0.00
2018-03-27T02:06:42.995Z,0.00
2018-03-27T02:07:42.974Z,0.00
2018-03-27T02:08:42.977Z,0.00
2018-03-27T02:09:42.966Z,0.00
2018-03-27T02:10:42.956Z,0.00
2018-03-27T02:11:42.937Z,0.00
2018-03-27T02:12:42.925Z,0.00
2018-03-27T02:13:42.929Z,0.00
2018-03-27T02:14:42.914Z,0.00
2018-03-27T02:15:42.898Z,0.00
2018-03-27T02:16:42.889Z,0.00
2018-03-27T02:17:42.879Z,0.00
2018-03-27T02:18:42.877Z,0.00
2018-03-27T02:19:42.863Z,0.00
2018-03-27T02:20:42.852Z,0.00
2018-03-27T02:21:42.846Z,0.00
2018-03-27T02:22:42.845Z,0.00
2018-03-27T02:23:42.818Z,0.00
2018-03-27T02:24:42.813Z,0.00
2018-03-27T02:25:42.807Z,0.00
2018-03-27T02:26:42.789Z,0.00
2018-03-27T02:27:42.790Z,0.00
2018-03-27T02:28:42.768Z,0.00
2018-03-27T02:29:42.769Z,0.00
2018-03-27T02:30:42.759Z,0.00
2018-03-27T02:31:42.741Z,0.00
2018-03-27T02:32:42.733Z,0.00
2018-03-27T02:33:42.717Z,0.00
2018-03-27T02:34:42.709Z,0.00
2018-03-27T02:35:42.697Z,0.00
2018-03-27T02:36:42.685Z,0.00
2018-03-27T02:37:42.677Z,0.00
2018-03-27T02:38:42.667Z,0.00
2018-03-27T02:39:42.659Z,0.00
2018-03-27T02:40:42.660Z,0.00
2018-03-27T02:41:42.641Z,0.00
2018-03-27T02:42:42.629Z,0.00
2018-03-27T02:43:42.619Z,0.00
2018-03-27T02:44:42.612Z,0.00
2018-03-27T02:45:42.596Z,0.00
2018-03-27T02:46:42.587Z,0.00
2018-03-27T02:47:42.581Z,0.00
2018-03-27T02:48:42.579Z,0.00
2018-03-27T02:49:42.556Z,0.00
2018-03-27T02:50:42.560Z,0.00
2018-03-27T02:51:42.600Z,0.00
2018-03-27T02:52:42.544Z,0.00
2018-03-27T02:53:42.517Z,0.00
2018-03-27T02:54:42.510Z,0.00
2018-03-27T02:55:42.499Z,0.00
2018-03-27T02:56:42.490Z,0.00
2018-03-27T02:57:42.480Z,0.00
2018-03-27T02:58:42.479Z,0.00
2018-03-27T02:59:42.471Z,0.00
2018-03-27T03:00:42.448Z,0.00
2018-03-27T03:01:42.443Z,0.00
2018-03-27T03:02:42.439Z,0.00
2018-03-27T03:03:42.421Z,0.00
2018-03-27T03:04:42.420Z,0.00
2018-03-27T03:05:42.405Z,0.00
2018-03-27T03:06:42.389Z,0.00
2018-03-27T03:07:42.396Z,0.00
2018-03-27T03:08:42.383Z,0.00
2018-03-27T03:09:42.364Z,0.00
2018-03-27T03:10:42.349Z,0.00
2018-03-27T03:11:42.338Z,0.00
2018-03-27T03:12:42.339Z,0.00
2018-03-27T03:13:42.318Z,0.00
2018-03-27T03:14:42.307Z,0.00
2018-03-27T03:15:42.298Z,0.00
2018-03-27T03:16:42.291Z,0.00
2018-03-27T03:17:42.282Z,0.00
2018-03-27T03:18:42.265Z,0.00
2018-03-27T03:19:42.269Z,0.00
2018-03-27T03:20:42.246Z,0.00
2018-03-27T03:21:42.237Z,0.00
2018-03-27T03:22:42.227Z,0.00
2018-03-27T03:23:42.221Z,0.00
2018-03-27T03:24:42.218Z,0.00
2018-03-27T03:25:42.196Z,0.00
2018-03-27T03:26:42.196Z,0.00
2018-03-27T03:27:42.192Z,0.00
2018-03-27T03:28:42.168Z,0.00
2018-03-27T03:29:42.159Z,0.00
2018-03-27T03:30:42.146Z,0.00
2018-03-27T03:31:42.148Z,0.00
2018-03-27T03:32:42.125Z,0.00
2018-03-27T03:33:42.116Z,0.00
2018-03-27T03:34:42.106Z,0.00
2018-03-27T03:35:42.109Z,0.00
2018-03-27T03:36:42.092Z,0.00
2018-03-27T03:37:42.077Z,0.00
2018-03-27T03:38:42.067Z,0.00
2018-03-27T03:39:42.066Z,0.00
2018-03-27T03:40:42.058Z,0.00
2018-03-27T03:41:42.036Z,0.00
2018-03-27T03:42:42.032Z,0.00
2018-03-27T03:43:42.025Z,0.00
2018-03-27T03:44:42.015Z,0.00
2018-03-27T03:45:42.006Z,0.00
2018-03-27T03:46:42.000Z,0.00
2018-03-27T03:47:41.984Z,0.00
2018-03-27T03:48:41.965Z,0.00
2018-03-27T03:49:41.951Z,0.00
2018-03-27T03:50:41.951Z,0.00
2018-03-27T03:51:41.950Z,0.00
2018-03-27T03:52:41.929Z,0.00
2018-03-27T03:53:41.912Z,0.00
2018-03-27T03:54:41.902Z,0.00
2018-03-27T03:55:41.901Z,0.00
2018-03-27T03:56:41.892Z,0.00
2018-03-27T03:57:41.868Z,0.00
2018-03-27T03:58:41.861Z,0.00
2018-03-27T03:59:41.859Z,0.00
2018-03-27T04:00:41.839Z,0.00
2018-03-27T04:01:41.839Z,0.00
2018-03-27T04:02:41.828Z,0.00
2018-03-27T04:03:41.813Z,0.00
2018-03-27T04:04:41.816Z,0.00
2018-03-27T04:05:41.786Z,0.00
2018-03-27T04:06:41.776Z,0.00
2018-03-27T04:07:41.783Z,0.00
2018-03-27T04:08:41.765Z,0.00
2018-03-27T04:09:41.746Z,0.00
2018-03-27T04:10:41.732Z,0.00
2018-03-27T04:11:41.725Z,0.00
2018-03-27T04:12:41.725Z,0.00
2018-03-27T04:13:41.730Z,0.00
2018-03-27T04:14:41.692Z,0.00
2018-03-27T04:15:41.693Z,0.00
2018-03-27T04:16:41.693Z,0.00
2018-03-27T04:17:41.665Z,0.00
2018-03-27T04:18:41.665Z,0.00
2018-03-27T04:19:41.637Z,0.00
2018-03-27T04:20:41.643Z,0.00
2018-03-27T04:21:41.631Z,0.00
2018-03-27T04:22:41.616Z,0.00
2018-03-27T04:23:41.595Z,0.00
2018-03-27T04:24:41.586Z,0.00
2018-03-27T04:25:41.575Z,0.00
2018-03-27T04:26:41.577Z,0.00
2018-03-27T04:27:41.552Z,0.00
2018-03-27T04:28:41.547Z,0.00
2018-03-27T04:29:41.532Z,0.00
2018-03-27T04:30:41.523Z,0.00
2018-03-27T04:31:41.512Z,0.00
2018-03-27T04:32:41.512Z,0.00
2018-03-27T04:33:41.491Z,0.00
2018-03-27T04:34:41.480Z,0.00
2018-03-27T04:35:41.480Z,0.00
2018-03-27T04:36:41.458Z,0.00
2018-03-27T04:37:41.448Z,0.00
2018-03-27T04:38:41.448Z,0.00
2018-03-27T04:39:41.438Z,0.00
2018-03-27T04:40:41.430Z,0.00
2018-03-27T04:41:41.405Z,0.00
2018-03-27T04:42:41.409Z,0.00
2018-03-27T04:43:41.381Z,0.00
2018-03-27T04:44:41.384Z,0.00
2018-03-27T04:45:41.364Z,0.00
2018-03-27T04:46:41.362Z,4.00
2018-03-27T04:47:41.353Z,4.00
2018-03-27T04:48:41.332Z,0.00
2018-03-27T04:49:41.320Z,4.00
2018-03-27T04:50:41.306Z,4.00
2018-03-27T04:51:41.329Z,4.00
2018-03-27T04:52:41.291Z,4.00
2018-03-27T04:53:41.288Z,4.00
2018-03-27T04:54:41.276Z,8.00
2018-03-27T04:55:41.266Z,8.00
2018-03-27T04:56:41.258Z,12.00
2018-03-27T04:57:41.244Z,12.00
2018-03-27T04:58:41.236Z,20.00
2018-03-27T04:59:41.210Z,20.00
2018-03-27T05:00:41.199Z,24.00
2018-03-27T05:01:41.199Z,28.00
2018-03-27T05:02:41.181Z,32.00
2018-03-27T05:03:41.167Z,36.00
2018-03-27T05:04:41.169Z,44.00
2018-03-27T05:05:41.157Z,52.00
2018-03-27T05:06:41.147Z,56.00
2018-03-27T05:07:41.128Z,64.00
2018-03-27T05:08:41.115Z,72.00
2018-03-27T05:09:41.105Z,84.00
2018-03-27T05:10:41.089Z,96.00
2018-03-27T05:11:41.081Z,108.00
2018-03-27T05:12:41.072Z,120.00
2018-03-27T05:13:41.061Z,136.00
2018-03-27T05:14:41.060Z,152.00
2018-03-27T05:15:41.044Z,168.00
2018-03-27T05:16:41.028Z,184.00
2018-03-27T05:17:41.029Z,204.00
2018-03-27T05:18:41.005Z,224.00
2018-03-27T05:19:40.993Z,244.00
2018-03-27T05:20:40.985Z,260.00
2018-03-27T05:21:40.979Z,284.00
2018-03-27T05:22:40.961Z,308.00
2018-03-27T05:23:40.951Z,332.00
2018-03-27T05:24:40.944Z,360.00
2018-03-27T05:25:40.928Z,384.00
2018-03-27T05:26:40.918Z,416.00
2018-03-27T05:27:40.921Z,444.00
2018-03-27T05:28:40.906Z,476.00
2018-03-27T05:29:40.888Z,508.00
2018-03-27T05:30:40.887Z,544.00
2018-03-27T05:31:40.868Z,580.00
2018-03-27T05:32:40.858Z,616.00
2018-03-27T05:33:40.844Z,656.00
2018-03-27T05:34:40.841Z,692.00
2018-03-27T05:35:40.818Z,732.00
2018-03-27T05:36:40.809Z,768.00
2018-03-27T05:37:40.799Z,816.00
2018-03-27T05:38:40.837Z,860.00
2018-03-27T05:39:40.773Z,908.00
2018-03-27T05:40:40.765Z,956.00
2018-03-27T05:41:40.756Z,1000.00
2018-03-27T05:42:40.754Z,1056.00
2018-03-27T05:43:40.732Z,1092.00
2018-03-27T05:44:40.737Z,1132.00
2018-03-27T05:45:40.712Z,1164.00
2018-03-27T05:46:40.751Z,1192.00
2018-03-27T05:47:40.699Z,1224.00
2018-03-27T05:48:40.676Z,1272.00
2018-03-27T05:49:40.668Z,1324.00
2018-03-27T05:50:40.664Z,1380.00
2018-03-27T05:51:40.656Z,1432.00
2018-03-27T05:52:40.651Z,1476.00
2018-03-27T05:53:40.625Z,1516.00
2018-03-27T05:54:40.610Z,1560.00
2018-03-27T05:55:40.599Z,1604.00
2018-03-27T05:56:40.599Z,1660.00
2018-03-27T05:57:40.594Z,1736.00
2018-03-27T05:58:40.568Z,1828.00
2018-03-27T05:59:40.559Z,1920.00
2018-03-27T06:00:40.558Z,2012.00
2018-03-27T06:01:40.549Z,2100.00
2018-03-27T06:02:40.523Z,2164.00
2018-03-27T06:03:40.513Z,2232.00
2018-03-27T06:04:40.502Z,2340.00
2018-03-27T06:05:40.494Z,2468.00
2018-03-27T06:06:40.483Z,2612.00
2018-03-27T06:07:40.469Z,2736.00
2018-03-27T06:08:40.468Z,2844.00
2018-03-27T06:09:40.459Z,2964.00
2018-03-27T06:10:40.437Z,3064.00
2018-03-27T06:11:40.423Z,3160.00
2018-03-27T06:12:40.415Z,3256.00
2018-03-27T06:13:40.472Z,3352.00
2018-03-27T06:14:40.393Z,3428.00
2018-03-27T06:15:40.383Z,3484.00
2018-03-27T06:16:40.369Z,3552.00
2018-03-27T06:17:40.360Z,3628.00
2018-03-27T06:18:40.405Z,3708.00
2018-03-27T06:19:40.350Z,3788.00
2018-03-27T06:20:40.327Z,3872.00
2018-03-27T06:21:40.329Z,3992.00
2018-03-27T06:22:40.317Z,4136.00
2018-03-27T06:23:40.306Z,4276.00
2018-03-27T06:24:40.332Z,4392.00
2018-03-27T06:25:40.275Z,4532.00
2018-03-27T06:26:40.275Z,4604.00
2018-03-27T06:27:40.276Z,4632.00
2018-03-27T06:28:40.240Z,4736.00
2018-03-27T06:29:40.233Z,4812.00
2018-03-27T06:30:40.222Z,4840.00
2018-03-27T06:31:40.208Z,4936.00
2018-03-27T06:32:40.203Z,5028.00
2018-03-27T06:33:40.189Z,4924.00
2018-03-27T06:34:40.192Z,4700.00
2018-03-27T06:35:40.180Z,4720.00
2018-03-27T06:36:40.157Z,4980.00
2018-03-27T06:37:40.159Z,5336.00
2018-03-27T06:38:40.137Z,5212.00
2018-03-27T06:39:40.141Z,4980.00
2018-03-27T06:40:40.130Z,5244.00
2018-03-27T06:41:40.118Z,5640.00
2018-03-27T06:42:40.096Z,5976.00
2018-03-27T06:43:40.087Z,6104.00
2018-03-27T06:44:40.075Z,6368.00
2018-03-27T06:45:40.067Z,6264.00
2018-03-27T06:46:40.054Z,6444.00
2018-03-27T06:47:40.069Z,6892.00
2018-03-27T06:48:40.037Z,7244.00
2018-03-27T06:49:40.024Z,7436.00
2018-03-27T06:50:40.018Z,7696.00
2018-03-27T06:51:40.009Z,7452.00
2018-03-27T06:52:39.994Z,7164.00
2018-03-27T06:53:39.984Z,7384.00
2018-03-27T06:54:39.974Z,7696.00
2018-03-27T06:55:39.963Z,7464.00
2018-03-27T06:56:39.965Z,7668.00
2018-03-27T06:57:39.943Z,7836.00
2018-03-27T06:58:39.945Z,8124.00
2018-03-27T06:59:39.922Z,8420.00
2018-03-27T07:00:39.926Z,8628.00
2018-03-27T07:01:39.910Z,8888.00
2018-03-27T07:02:39.894Z,8916.00
2018-03-27T07:03:39.909Z,8744.00
2018-03-27T07:04:39.877Z,9116.00
2018-03-27T07:05:39.886Z,9240.00
2018-03-27T07:06:39.903Z,9872.00
2018-03-27T07:07:39.858Z,10660.00
2018-03-27T07:08:39.845Z,9556.00
2018-03-27T07:09:39.844Z,9416.00
2018-03-27T07:10:39.903Z,10472.00
2018-03-27T07:11:39.819Z,11184.00
2018-03-27T07:12:39.844Z,11328.00
2018-03-27T07:13:39.790Z,11132.00
2018-03-27T07:14:39.803Z,10700.00
2018-03-27T07:15:39.778Z,10744.00
2018-03-27T07:16:39.771Z,10536.00
2018-03-27T07:17:39.750Z,10024.00
2018-03-27T07:18:39.753Z,9860.00
2018-03-27T07:19:39.743Z,10764.00
2018-03-27T07:20:39.736Z,10816.00
2018-03-27T07:21:39.726Z,12144.00
2018-03-27T07:22:39.710Z,11008.00
2018-03-27T07:23:39.696Z,10016.00
2018-03-27T07:24:39.698Z,11060.00
2018-03-27T07:25:39.680Z,11628.00
2018-03-27T07:26:39.680Z,11968.00
2018-03-27T07:27:39.657Z,12132.00
2018-03-27T07:28:39.653Z,10768.00
2018-03-27T07:29:39.653Z,11184.00
2018-03-27T07:30:39.645Z,11800.00
2018-03-27T07:31:39.623Z,11368.00
2018-03-27T07:32:39.617Z,11124.00
2018-03-27T07:33:39.606Z,11876.00
2018-03-27T07:34:39.595Z,12548.00
2018-03-27T07:35:39.590Z,12508.00
2018-03-27T07:36:39.577Z,11660.00
2018-03-27T07:37:39.580Z,11732.00
2018-03-27T07:38:39.572Z,11520.00
2018-03-27T07:39:39.562Z,12436.00
2018-03-27T07:40:39.548Z,13408.00
2018-03-27T07:41:39.536Z,11952.00
2018-03-27T07:42:39.524Z,11896.00
2018-03-27T07:43:39.515Z,12604.00
2018-03-27T07:44:39.508Z,12028.00
2018-03-27T07:45:39.509Z,11488.00
2018-03-27T07:46:39.487Z,11340.00
2018-03-27T07:47:39.491Z,11060.00
2018-03-27T07:48:39.470Z,10968.00
2018-03-27T07:49:39.461Z,11056.00
2018-03-27T07:50:39.464Z,11960.00
2018-03-27T07:51:39.444Z,13864.00
2018-03-27T07:52:39.446Z,16448.00
2018-03-27T07:53:39.442Z,17472.00
2018-03-27T07:54:39.430Z,18592.00
2018-03-27T07:55:39.406Z,18080.00
2018-03-27T07:56:39.398Z,17568.00
2018-03-27T07:57:39.394Z,17952.00
2018-03-27T07:58:39.394Z,18560.00
2018-03-27T07:59:39.388Z,18496.00
2018-03-27T08:00:39.364Z,18848.00
2018-03-27T08:01:39.360Z,16864.00
2018-03-27T08:02:39.358Z,14908.00
2018-03-27T08:03:39.351Z,14300.00
2018-03-27T08:04:39.332Z,15216.00
2018-03-27T08:05:39.324Z,16288.00
2018-03-27T08:06:39.313Z,18048.00
2018-03-27T08:07:39.305Z,18848.00
2018-03-27T08:08:39.297Z,20000.00
2018-03-27T08:09:39.297Z,22272.00
2018-03-27T08:10:39.278Z,25024.00
2018-03-27T08:11:39.280Z,24864.00
2018-03-27T08:12:39.270Z,28832.00
2018-03-27T08:13:39.254Z,25792.00
2018-03-27T08:14:39.261Z,18656.00
2018-03-27T08:15:39.250Z,17248.00
2018-03-27T08:16:39.234Z,22784.00
2018-03-27T08:17:39.241Z,20032.00
2018-03-27T08:18:39.212Z,15284.00
2018-03-27T08:19:39.207Z,13928.00
2018-03-27T08:20:39.202Z,13484.00
2018-03-27T08:21:39.204Z,13068.00
2018-03-27T08:22:39.188Z,13848.00
2018-03-27T08:23:39.175Z,13440.00
2018-03-27T08:24:39.167Z,13220.00
2018-03-27T08:25:39.157Z,12528.00
2018-03-27T08:26:39.154Z,11840.00
2018-03-27T08:27:39.157Z,12364.00
2018-03-27T08:28:39.138Z,12768.00
2018-03-27T08:29:39.160Z,12156.00
2018-03-27T08:30:39.134Z,11348.00
2018-03-27T08:31:39.112Z,10828.00
2018-03-27T08:32:39.104Z,10828.00
2018-03-27T08:33:39.108Z,9892.00
2018-03-27T08:34:39.098Z,10304.00
2018-03-27T08:35:39.080Z,10756.00
2018-03-27T08:36:39.073Z,11164.00
2018-03-27T08:37:39.064Z,12912.00
2018-03-27T08:38:39.054Z,14288.00
2018-03-27T08:39:39.047Z,14824.00
2018-03-27T08:40:39.052Z,15436.00
2018-03-27T08:41:39.031Z,15216.00
2018-03-27T08:42:39.039Z,15220.00
2018-03-27T08:43:39.011Z,16300.00
2018-03-27T08:44:39.017Z,17792.00
2018-03-27T08:45:39.008Z,19840.00
2018-03-27T08:46:38.990Z,17184.00
2018-03-27T08:47:38.979Z,17376.00
2018-03-27T08:48:39.041Z,18592.00
2018-03-27T08:49:38.980Z,18816.00
2018-03-27T08:50:38.956Z,19712.00
2018-03-27T08:51:38.951Z,21920.00
2018-03-27T08:52:38.950Z,23136.00
2018-03-27T08:53:38.944Z,23648.00
2018-03-27T08:54:38.935Z,24672.00
2018-03-27T08:55:38.928Z,25952.00
2018-03-27T08:56:38.905Z,27264.00
2018-03-27T08:57:38.908Z,28384.00
2018-03-27T08:58:38.901Z,32064.00
2018-03-27T08:59:38.884Z,39968.00
2018-03-27T09:00:38.916Z,33920.00
2018-03-27T09:01:38.883Z,36736.00
2018-03-27T09:02:38.858Z,44256.00
2018-03-27T09:03:38.859Z,38944.00
2018-03-27T09:04:38.850Z,58112.00
2018-03-27T09:05:38.840Z,43648.00
2018-03-27T09:06:38.842Z,46016.00
2018-03-27T09:07:38.823Z,46208.00
2018-03-27T09:08:38.818Z,57504.00
2018-03-27T09:09:38.820Z,60672.00
2018-03-27T09:10:38.804Z,61088.00
2018-03-27T09:11:38.809Z,74816.00
2018-03-27T09:12:38.808Z,66368.00
2018-03-27T09:13:38.789Z,34528.00
2018-03-27T09:14:38.793Z,38432.00
2018-03-27T09:15:38.776Z,39360.00
2018-03-27T09:16:38.778Z,39776.00
2018-03-27T09:17:38.770Z,41920.00
2018-03-27T09:18:38.777Z,40352.00
2018-03-27T09:19:38.773Z,42368.00
2018-03-27T09:20:38.770Z,43584.00
2018-03-27T09:21:38.752Z,44992.00
2018-03-27T09:22:38.761Z,48832.00
2018-03-27T09:23:38.754Z,50688.00
2018-03-27T09:24:38.757Z,56640.00
2018-03-27T09:25:38.743Z,58752.00
2018-03-27T09:26:38.744Z,47392.00
2018-03-27T09:27:38.755Z,46272.00
2018-03-27T09:28:38.807Z,42240.00
2018-03-27T09:29:38.735Z,37728.00
2018-03-27T09:30:38.743Z,39872.00
2018-03-27T09:31:38.733Z,40128.00
2018-03-27T09:32:38.733Z,38592.00
2018-03-27T09:33:38.746Z,38624.00
2018-03-27T09:34:38.741Z,44352.00
2018-03-27T09:35:38.727Z,47968.00
2018-03-27T09:36:38.729Z,52064.00
2018-03-27T09:37:38.728Z,56576.00
2018-03-27T09:38:38.738Z,56800.00
2018-03-27T09:39:38.738Z,55296.00
2018-03-27T09:40:38.726Z,54880.00
2018-03-27T09:41:38.729Z,58208.00
2018-03-27T09:42:38.726Z,52736.00
2018-03-27T09:43:38.734Z,54688.00
2018-03-27T09:44:38.736Z,56160.00
2018-03-27T09:45:38.736Z,54784.00
2018-03-27T09:46:38.738Z,56000.00
2018-03-27T09:47:38.735Z,56032.00
2018-03-27T09:48:38.738Z,55104.00
2018-03-27T09:49:38.744Z,50816.00
2018-03-27T09:50:38.725Z,50432.00
2018-03-27T09:51:38.727Z,50944.00
2018-03-27T09:52:38.739Z,56000.00
2018-03-27T09:53:38.726Z,54112.00
2018-03-27T09:54:38.725Z,54976.00
2018-03-27T09:55:38.727Z,55904.00
2018-03-27T09:56:38.726Z,54272.00
2018-03-27T09:57:38.731Z,45536.00
2018-03-27T09:58:38.740Z,50976.00
2018-03-27T09:59:38.738Z,55712.00
2018-03-27T10:00:38.728Z,58144.00
2018-03-27T10:01:38.733Z,58880.00
2018-03-27T10:02:38.729Z,57920.00
2018-03-27T10:03:38.729Z,24960.00
2018-03-27T10:04:38.729Z,59808.00
2018-03-27T10:05:38.735Z,61344.00
2018-03-27T10:06:38.785Z,58144.00
2018-03-27T10:07:38.733Z,55072.00
2018-03-27T10:08:38.732Z,58080.00
2018-03-27T10:09:38.744Z,56928.00
2018-03-27T10:10:38.732Z,61440.00
2018-03-27T10:11:38.746Z,65728.00
2018-03-27T10:12:38.743Z,64864.00
2018-03-27T10:13:38.736Z,61056.00
2018-03-27T10:14:38.749Z,53664.00
2018-03-27T10:15:38.755Z,47040.00
2018-03-27T10:16:38.746Z,56992.00
2018-03-27T10:17:38.757Z,46368.00
2018-03-27T10:18:38.753Z,51584.00
2018-03-27T10:19:38.760Z,55168.00
2018-03-27T10:20:38.759Z,59744.00
2018-03-27T10:21:38.749Z,61984.00
2018-03-27T10:22:38.748Z,60896.00
2018-03-27T10:23:38.755Z,62944.00
2018-03-27T10:24:38.764Z,63296.00
2018-03-27T10:25:38.755Z,65472.00
2018-03-27T10:26:38.767Z,67616.00
2018-03-27T10:27:38.759Z,64736.00
2018-03-27T10:28:38.758Z,62016.00
2018-03-27T10:29:38.763Z,64768.00
2018-03-27T10:30:38.778Z,58656.00
2018-03-27T10:31:38.764Z,59008.00
2018-03-27T10:32:38.770Z,57824.00
2018-03-27T10:33:38.784Z,61728.00
2018-03-27T10:34:38.771Z,31296.00
2018-03-27T10:35:38.785Z,43424.00
2018-03-27T10:36:38.805Z,62624.00
2018-03-27T10:37:38.784Z,55840.00
2018-03-27T10:38:38.782Z,58720.00
2018-03-27T10:39:38.785Z,51232.00
2018-03-27T10:40:38.788Z,53888.00
2018-03-27T10:41:38.789Z,53280.00
2018-03-27T10:42:38.793Z,55008.00
2018-03-27T10:43:38.805Z,49952.00
2018-03-27T10:44:38.794Z,53312.00
2018-03-27T10:45:38.802Z,35424.00
2018-03-27T10:46:39.116Z,23616.00
2018-03-27T10:47:38.819Z,29152.00
2018-03-27T10:48:38.806Z,18368.00
2018-03-27T10:49:38.809Z,18912.00
2018-03-27T10:50:38.823Z,23392.00
2018-03-27T10:51:38.824Z,21536.00
2018-03-27T10:52:38.814Z,19072.00
2018-03-27T10:53:38.828Z,18080.00
2018-03-27T10:54:38.822Z,20320.00
2018-03-27T10:55:38.819Z,25600.00
2018-03-27T10:56:38.820Z,31104.00
2018-03-27T10:57:38.821Z,27424.00
2018-03-27T10:58:38.828Z,26048.00
2018-03-27T10:59:38.820Z,19104.00
2018-03-27T11:00:38.829Z,15360.00
2018-03-27T11:01:38.835Z,14076.00
2018-03-27T11:02:38.827Z,13416.00
2018-03-27T11:03:38.829Z,15380.00
2018-03-27T11:04:38.814Z,18048.00
2018-03-27T11:05:38.824Z,24000.00
2018-03-27T11:06:38.810Z,24224.00
2018-03-27T11:07:38.808Z,25376.00
2018-03-27T11:08:38.809Z,23392.00
2018-03-27T11:09:38.821Z,32448.00
2018-03-27T11:10:38.805Z,30240.00
2018-03-27T11:11:38.808Z,50240.00
2018-03-27T11:12:38.813Z,58400.00
2018-03-27T11:13:38.799Z,33696.00
2018-03-27T11:14:38.793Z,28256.00
2018-03-27T11:15:38.791Z,28832.00
2018-03-27T11:16:38.793Z,35168.00
2018-03-27T11:17:38.790Z,33280.00
2018-03-27T11:18:38.798Z,51296.00
2018-03-27T11:19:38.807Z,37184.00
2018-03-27T11:20:38.785Z,28736.00
2018-03-27T11:21:38.783Z,24288.00
2018-03-27T11:22:38.780Z,26368.00
2018-03-27T11:23:38.775Z,21984.00
2018-03-27T11:24:38.788Z,20352.00
2018-03-27T11:25:38.785Z,20192.00
2018-03-27T11:26:38.772Z,21248.00
2018-03-27T11:27:38.788Z,23936.00
2018-03-27T11:28:38.769Z,26400.00
2018-03-27T11:29:38.767Z,27776.00
2018-03-27T11:30:38.759Z,27488.00
2018-03-27T11:31:38.759Z,27424.00
2018-03-27T11:32:38.767Z,25504.00
2018-03-27T11:33:38.757Z,27328.00
2018-03-27T11:34:38.755Z,43904.00
2018-03-27T11:35:38.758Z,34464.00
2018-03-27T11:36:38.746Z,26048.00
2018-03-27T11:37:38.753Z,25024.00
2018-03-27T11:38:38.737Z,25376.00
2018-03-27T11:39:38.734Z,27488.00
2018-03-27T11:40:38.732Z,50496.00
2018-03-27T11:41:38.730Z,52096.00
2018-03-27T11:42:38.725Z,52448.00
2018-03-27T11:43:38.738Z,46272.00
2018-03-27T11:44:38.721Z,43712.00
2018-03-27T11:45:38.728Z,37440.00
2018-03-27T11:46:38.724Z,39968.00
2018-03-27T11:47:38.721Z,40544.00
2018-03-27T11:48:38.709Z,58752.00
2018-03-27T11:49:38.716Z,65824.00
2018-03-27T11:50:38.705Z,67296.00
2018-03-27T11:51:38.699Z,67488.00
2018-03-27T11:52:38.710Z,63072.00
2018-03-27T11:53:38.694Z,60032.00
2018-03-27T11:54:38.726Z,47776.00
2018-03-27T11:55:38.706Z,44448.00
2018-03-27T11:56:38.700Z,47264.00
2018-03-27T11:57:38.691Z,44960.00
2018-03-27T11:58:38.685Z,61760.00
2018-03-27T11:59:38.696Z,59264.00
2018-03-27T12:00:38.681Z,64928.00
2018-03-27T12:01:38.690Z,67200.00
2018-03-27T12:02:38.679Z,68768.00
2018-03-27T12:03:38.678Z,61568.00
2018-03-27T12:04:38.689Z,56928.00
2018-03-27T12:05:38.678Z,52384.00
2018-03-27T12:06:38.677Z,50528.00
2018-03-27T12:07:38.678Z,47520.00
2018-03-27T12:08:38.684Z,46048.00
2018-03-27T12:09:38.683Z,41696.00
2018-03-27T12:10:38.684Z,27424.00
2018-03-27T12:11:38.669Z,23456.00
2018-03-27T12:12:38.670Z,21728.00
2018-03-27T12:13:38.676Z,20672.00
2018-03-27T12:14:38.672Z,19968.00
2018-03-27T12:15:38.671Z,20128.00
2018-03-27T12:16:38.668Z,19616.00
2018-03-27T12:17:38.666Z,18336.00
2018-03-27T12:18:38.676Z,15652.00
2018-03-27T12:19:38.673Z,14808.00
2018-03-27T12:20:38.663Z,14980.00
2018-03-27T12:21:38.669Z,14996.00
2018-03-27T12:22:38.659Z,14292.00
2018-03-27T12:23:38.657Z,14256.00
2018-03-27T12:24:38.672Z,14732.00